• Join FlightAware (Why Join?)
  • Login
  • US Flag 
01:03PM EDT


 

Airport Tracker/Info


-or-


 

Live Flight TrackerFlight Track Log ✈ SKW6528 ✈ 21-Apr-2013 ✈ KDEN - KSGF

Flight Track Log - Related Links

Times and Time Zones

All times are in EDT time to prevent confusion due to time zone crossing. See the SKW6528 flight status page for this flight to view local times or setup timezone preferences in your user account.

Time Position Orientation Groundspeed Altitude Reporting Facility
EDT Latitude Longitude Course Direction KTS MPH feet Rate Location/Type
12:11PM 39.8750 -104.5961 90° East 210 242 6,500  Level Denver Center
12:12PM 39.8542 -104.5236 111° Southeast 218 251 8,900 1,980 Climbing Denver Center
12:13PM 39.8203 -104.4242 114° Southeast 280 322 10,700 2,040 Climbing Denver Center
12:14PM 39.7667 -104.0256 90° East  Level FlightAware Approximate
12:14PM 39.8081 -104.3186 99° East 300 345 13,200  Level Denver Center
12:15PM 39.7500 -103.8673 90° East  Level FlightAware Approximate
12:15PM 39.7925 -104.1947 99° East 332 382 14,800  Level Denver Center
12:16PM 39.7333 -103.7081 90° East  Level FlightAware Approximate
12:16PM 39.7781 -104.0700 99° East 346 398 16,400  Level Denver Center
12:17PM 39.7644 -103.9372 98° East 369 425 18,000 1,500 Climbing Denver Center
12:18PM 39.7467 -103.7922 99° East 380 437 19,600 1,380 Climbing Denver Center
12:19PM 39.7356 -103.6678 97° East 371 427 20,900 1,320 Climbing Denver Center
12:20PM 39.7217 -103.5014 96° East 392 451 22,400 1,200 Climbing Denver Center
12:21PM 39.6975 -103.3569 102° East 406 467 23,500 960 Climbing Denver Center
12:22PM 39.6692 -103.2108 104° East 414 476 24,500 900 Climbing Denver Center
12:23PM 39.6392 -103.0619 105° East 421 484 25,400 840 Climbing Denver Center
12:24PM 39.6092 -102.9100 104° East 430 495 26,300 720 Climbing Denver Center
12:25PM 39.5783 -102.7564 105° East 436 502 27,000 660 Climbing Denver Center
12:27PM 39.5467 -102.5983 105° East 447 514 27,700 540 Climbing Denver Center
12:28PM 39.5136 -102.4386 105° East 454 522 28,200 660 Climbing Denver Center
12:29PM 39.4761 -102.2558 105° East 458 527 29,100 660 Climbing Denver Center
12:30PM 39.4442 -102.1028 105° East 461 531 29,600 480 Climbing Denver Center
12:31PM 39.4058 -101.9228 105° East 466 536 30,100 360 Climbing Denver Center
12:32PM 39.3736 -101.7669 105° East 469 540 30,400 420 Climbing Denver Center
12:33PM 39.3353 -101.5850 105° East 472 543 31,000 480 Climbing Denver Center
12:34PM 39.3014 -101.4283 106° East 474 545 31,400 480 Climbing Denver Center
12:35PM 39.2628 -101.2483 105° East 469 540 32,000 480 Climbing Denver Center
12:36PM 39.2292 -101.0933 106° East 470 541 32,500 480 Climbing Denver Center
12:37PM 39.1900 -100.9122 106° East 470 541 33,000 240 Climbing Denver Center
12:38PM 39.1547 -100.7564 106° East 474 545 33,000  Level Denver Center
12:39PM 39.1133 -100.5714 106° East 481 554 33,000  Level Denver Center
12:40PM 39.0775 -100.4100 106° East 487 560 33,000  Level Denver Center
12:41PM 39.0339 -100.2200 106° East 494 568 33,000  Level Denver Center
12:42PM 38.9969 -100.0567 106° East 497 572 33,000  Level Denver Center
12:43PM 38.9592 -99.8906 106° East 501 577 33,000  Level Denver Center
12:44PM 38.9139 -99.6975 107° East 504 580 33,000  Level Denver Center
12:45PM 38.8764 -99.5339 106° East 500 575 33,000  Level Denver Center
12:46PM 38.8319 -99.3444 107° East 498 573 33,000  Level Denver Center
12:47PM 38.8114 -99.2642 108° East 496 571 33,000  Level Kansas City Center
12:48PM 38.7733 -99.0958 106° East 491 565 33,000  Level Kansas City Center
12:49PM 38.7331 -98.9292 107° East 488 562 33,000  Level Kansas City Center
12:50PM 38.6936 -98.7628 107° East 488 562 33,000  Level Kansas City Center
12:51PM 38.6536 -98.5989 107° East 483 556 33,000  Level Kansas City Center
12:52PM 38.6053 -98.4008 107° East 484 557 33,000  Level Kansas City Center
12:53PM 38.5650 -98.2383 108° East 479 551 33,000  Level Kansas City Center
12:54PM 38.5256 -98.0756 107° East 478 550 33,000  Level Kansas City Center
12:55PM 38.4847 -97.9139 108° East 476 548 33,000  Level Kansas City Center
12:56PM 38.4447 -97.7528 108° East 474 545 33,000  Level Kansas City Center
12:57PM 38.4039 -97.5922 108° East 473 544 33,000  Level Kansas City Center
12:58PM 38.3633 -97.4328 108° East 471 542 33,000  Level Kansas City Center
12:59PM 38.3231 -97.2742 108° East 469 540 33,000  Level Kansas City Center
01:00PM 38.2728 -97.0839 109° East 470 541 33,000  Level Kansas City Center
01:01PM 38.2328 -96.9258 108° East 468 539 33,000  Level Kansas City Center
01:02PM 38.1914 -96.7686 108° East 468 539 33,000  Level Kansas City Center
01:03PM 38.1494 -96.6108 109° East 470 541 33,000  Level Kansas City Center
01:04PM 38.1086 -96.4556 108° East 465 535 33,000  Level Kansas City Center
01:05PM 38.0672 -96.2989 109° East 468 539 33,000  Level Kansas City Center
01:06PM 38.0181 -96.1164 109° East 466 536 33,000  Level Kansas City Center
01:07PM 37.9783 -95.9700 109° East 461 531 33,000  Level Kansas City Center
01:08PM 37.9325 -95.8017 109° East 462 532 33,000  Level Kansas City Center
01:09PM 37.8911 -95.6478 109° East 461 531 33,000 -120 Level Kansas City Center
01:10PM 37.8492 -95.4956 109° East 459 528 32,800 -600 Descending Kansas City Center
01:11PM 37.8050 -95.3392 110° East 463 533 31,800 -1,200 Descending Kansas City Center
01:13PM 37.7600 -95.1772 109° East 476 548 30,300 -1,980 Descending Kansas City Center
01:14PM 37.7128 -95.0036 109° East 479 551 27,800 -2,580 Descending Kansas City Center
01:15PM 37.6667 -94.8431 110° East 452 520 25,100 -2,460 Descending Kansas City Center
01:16PM 37.6253 -94.6967 110° East 444 511 22,700 -2,340 Descending Kansas City Center
01:17PM 37.5850 -94.5547 110° East 434 499 20,300 -2,280 Descending Kansas City Center
01:18PM 37.5447 -94.4175 110° East 422 486 18,000 -2,100 Descending Kansas City Center
01:19PM 37.5083 -94.2842 109° East 409 471 16,100 -1,260 Descending Kansas City Center
01:20PM 37.4778 -94.1561 107° East 392 451 15,400 -1,800 Descending Kansas City Center
01:21PM 37.4478 -94.0161 105° East 372 428 12,400 -2,100 Descending Kansas City Center
01:23PM 37.3958 -93.8025 107° East 316 364 9,000 -1,680 Descending Kansas City Center
01:24PM 37.3775 -93.7172 105° East 273 314 7,300 -1,740 Descending Kansas City Center
01:25PM 37.3586 -93.6372 107° East 251 289 5,500 -1,740 Descending Kansas City Center
01:26PM 37.3403 -93.5603 107° East 240 276 3,800 -1,200 Descending Kansas City Center
01:27PM 37.3161 -93.4747 110° East 226 260 3,000 -780 Descending Kansas City Center